sensor_id;sensor_type;location;lat;lon;timestamp;P1;durP1;ratioP1;P2;durP2;ratioP2
8337;SDS011;4206;48.634;9.516;2022-10-16T00:01:10;3.13;;;1.13;;
8337;SDS011;4206;48.634;9.516;2022-10-16T00:03:38;1.60;;;1.10;;
8337;SDS011;4206;48.634;9.516;2022-10-16T00:06:05;5.17;;;1.30;;
8337;SDS011;4206;48.634;9.516;2022-10-16T00:08:32;6.27;;;1.13;;
8337;SDS011;4206;48.634;9.516;2022-10-16T00:10:59;4.43;;;1.33;;
8337;SDS011;4206;48.634;9.516;2022-10-16T00:13:25;12.63;;;3.50;;
8337;SDS011;4206;48.634;9.516;2022-10-16T00:15:54;5.00;;;2.40;;
8337;SDS011;4206;48.634;9.516;2022-10-16T00:18:20;1.57;;;1.20;;
8337;SDS011;4206;48.634;9.516;2022-10-16T00:20:46;5.37;;;0.80;;
8337;SDS011;4206;48.634;9.516;2022-10-16T00:23:12;4.87;;;1.13;;
8337;SDS011;4206;48.634;9.516;2022-10-16T00:25:37;1.87;;;0.90;;
8337;SDS011;4206;48.634;9.516;2022-10-16T00:28:03;2.23;;;1.07;;
8337;SDS011;4206;48.634;9.516;2022-10-16T00:30:29;1.00;;;0.90;;
8337;SDS011;4206;48.634;9.516;2022-10-16T00:32:55;1.37;;;0.60;;
8337;SDS011;4206;48.634;9.516;2022-10-16T00:35:21;1.73;;;0.90;;
8337;SDS011;4206;48.634;9.516;2022-10-16T00:37:46;5.70;;;0.83;;
8337;SDS011;4206;48.634;9.516;2022-10-16T00:40:12;1.80;;;1.40;;
8337;SDS011;4206;48.634;9.516;2022-10-16T00:42:38;3.83;;;2.83;;
8337;SDS011;4206;48.634;9.516;2022-10-16T00:45:04;6.43;;;3.50;;
8337;SDS011;4206;48.634;9.516;2022-10-16T00:50:00;3.13;;;2.40;;
8337;SDS011;4206;48.634;9.516;2022-10-16T00:52:30;5.10;;;2.60;;
8337;SDS011;4206;48.634;9.516;2022-10-16T00:54:56;3.70;;;2.43;;
8337;SDS011;4206;48.634;9.516;2022-10-16T00:57:23;3.33;;;2.07;;
8337;SDS011;4206;48.634;9.516;2022-10-16T00:59:49;3.67;;;2.70;;
8337;SDS011;4206;48.634;9.516;2022-10-16T01:02:16;8.03;;;3.07;;
8337;SDS011;4206;48.634;9.516;2022-10-16T01:04:44;3.83;;;2.40;;
8337;SDS011;4206;48.634;9.516;2022-10-16T01:15:30;1.07;;;0.57;;
8337;SDS011;4206;48.634;9.516;2022-10-16T01:20:49;2.93;;;0.90;;
8337;SDS011;4206;48.634;9.516;2022-10-16T01:31:21;3.00;;;0.90;;
8337;SDS011;4206;48.634;9.516;2022-10-16T01:33:53;2.60;;;0.60;;
8337;SDS011;4206;48.634;9.516;2022-10-16T01:36:26;1.00;;;0.70;;
8337;SDS011;4206;48.634;9.516;2022-10-16T01:39:00;1.10;;;0.50;;
8337;SDS011;4206;48.634;9.516;2022-10-16T01:41:31;0.60;;;0.60;;
8337;SDS011;4206;48.634;9.516;2022-10-16T01:46:30;2.50;;;0.60;;
8337;SDS011;4206;48.634;9.516;2022-10-16T01:48:57;4.67;;;1.00;;
8337;SDS011;4206;48.634;9.516;2022-10-16T01:51:23;1.10;;;1.00;;
8337;SDS011;4206;48.634;9.516;2022-10-16T01:53:52;1.47;;;0.80;;
8337;SDS011;4206;48.634;9.516;2022-10-16T01:56:20;1.83;;;1.10;;
8337;SDS011;4206;48.634;9.516;2022-10-16T01:58:52;0.80;;;0.80;;
8337;SDS011;4206;48.634;9.516;2022-10-16T02:01:22;4.60;;;0.97;;
8337;SDS011;4206;48.634;9.516;2022-10-16T02:03:51;2.10;;;0.83;;
8337;SDS011;4206;48.634;9.516;2022-10-16T02:06:20;2.30;;;0.87;;
8337;SDS011;4206;48.634;9.516;2022-10-16T02:08:46;5.60;;;1.07;;
8337;SDS011;4206;48.634;9.516;2022-10-16T02:11:11;2.00;;;0.80;;
8337;SDS011;4206;48.634;9.516;2022-10-16T02:13:39;5.73;;;0.53;;
8337;SDS011;4206;48.634;9.516;2022-10-16T02:16:10;4.37;;;0.80;;
8337;SDS011;4206;48.634;9.516;2022-10-16T02:18:37;3.70;;;0.67;;
8337;SDS011;4206;48.634;9.516;2022-10-16T02:21:07;1.70;;;0.47;;
8337;SDS011;4206;48.634;9.516;2022-10-16T02:23:56;1.23;;;0.83;;
8337;SDS011;4206;48.634;9.516;2022-10-16T02:26:57;1.87;;;0.80;;
8337;SDS011;4206;48.634;9.516;2022-10-16T02:29:25;1.97;;;0.93;;
8337;SDS011;4206;48.634;9.516;2022-10-16T02:31:56;7.80;;;0.70;;
8337;SDS011;4206;48.634;9.516;2022-10-16T02:34:25;2.70;;;0.73;;
8337;SDS011;4206;48.634;9.516;2022-10-16T02:36:52;3.40;;;0.60;;
8337;SDS011;4206;48.634;9.516;2022-10-16T02:39:19;8.80;;;0.90;;
8337;SDS011;4206;48.634;9.516;2022-10-16T02:41:45;3.13;;;1.10;;
8337;SDS011;4206;48.634;9.516;2022-10-16T02:44:11;1.47;;;0.63;;
8337;SDS011;4206;48.634;9.516;2022-10-16T02:46:36;11.37;;;0.77;;
8337;SDS011;4206;48.634;9.516;2022-10-16T02:49:02;2.23;;;1.07;;
8337;SDS011;4206;48.634;9.516;2022-10-16T02:51:28;5.70;;;0.80;;
8337;SDS011;4206;48.634;9.516;2022-10-16T02:53:54;2.20;;;0.73;;
8337;SDS011;4206;48.634;9.516;2022-10-16T02:56:20;2.30;;;0.67;;
8337;SDS011;4206;48.634;9.516;2022-10-16T02:58:46;1.07;;;0.60;;
8337;SDS011;4206;48.634;9.516;2022-10-16T03:01:11;3.67;;;0.73;;
8337;SDS011;4206;48.634;9.516;2022-10-16T03:03:39;0.80;;;0.60;;
8337;SDS011;4206;48.634;9.516;2022-10-16T03:06:04;3.03;;;0.60;;
8337;SDS011;4206;48.634;9.516;2022-10-16T03:08:31;1.43;;;0.80;;
8337;SDS011;4206;48.634;9.516;2022-10-16T03:10:56;1.30;;;0.70;;
8337;SDS011;4206;48.634;9.516;2022-10-16T03:13:22;1.47;;;0.60;;
8337;SDS011;4206;48.634;9.516;2022-10-16T03:15:48;4.80;;;0.80;;
8337;SDS011;4206;48.634;9.516;2022-10-16T03:18:13;2.10;;;0.70;;
8337;SDS011;4206;48.634;9.516;2022-10-16T03:20:40;1.20;;;0.57;;
8337;SDS011;4206;48.634;9.516;2022-10-16T03:23:05;2.10;;;0.50;;
8337;SDS011;4206;48.634;9.516;2022-10-16T03:25:33;1.00;;;0.60;;
8337;SDS011;4206;48.634;9.516;2022-10-16T03:27:58;0.77;;;0.70;;
8337;SDS011;4206;48.634;9.516;2022-10-16T03:30:27;0.80;;;0.60;;
8337;SDS011;4206;48.634;9.516;2022-10-16T03:32:53;0.97;;;0.50;;
8337;SDS011;4206;48.634;9.516;2022-10-16T03:35:20;0.93;;;0.57;;
8337;SDS011;4206;48.634;9.516;2022-10-16T03:37:46;0.60;;;0.53;;
8337;SDS011;4206;48.634;9.516;2022-10-16T03:40:12;3.33;;;0.63;;
8337;SDS011;4206;48.634;9.516;2022-10-16T03:42:37;3.80;;;0.70;;
8337;SDS011;4206;48.634;9.516;2022-10-16T03:45:03;2.10;;;0.70;;
8337;SDS011;4206;48.634;9.516;2022-10-16T03:47:30;1.60;;;0.60;;
8337;SDS011;4206;48.634;9.516;2022-10-16T03:49:57;6.40;;;0.70;;
8337;SDS011;4206;48.634;9.516;2022-10-16T03:52:23;1.80;;;1.00;;
8337;SDS011;4206;48.634;9.516;2022-10-16T03:54:49;3.57;;;1.10;;
8337;SDS011;4206;48.634;9.516;2022-10-16T03:57:15;6.57;;;1.03;;
8337;SDS011;4206;48.634;9.516;2022-10-16T03:59:40;2.43;;;0.90;;
8337;SDS011;4206;48.634;9.516;2022-10-16T04:02:06;6.13;;;1.13;;
8337;SDS011;4206;48.634;9.516;2022-10-16T04:04:32;2.20;;;1.00;;
8337;SDS011;4206;48.634;9.516;2022-10-16T04:06:57;2.03;;;0.60;;
8337;SDS011;4206;48.634;9.516;2022-10-16T04:09:23;3.30;;;0.83;;
8337;SDS011;4206;48.634;9.516;2022-10-16T04:11:48;1.63;;;0.83;;
8337;SDS011;4206;48.634;9.516;2022-10-16T04:14:14;2.30;;;0.70;;
8337;SDS011;4206;48.634;9.516;2022-10-16T04:16:40;7.00;;;1.20;;
8337;SDS011;4206;48.634;9.516;2022-10-16T04:19:05;2.07;;;0.70;;
8337;SDS011;4206;48.634;9.516;2022-10-16T04:21:33;2.63;;;0.80;;
8337;SDS011;4206;48.634;9.516;2022-10-16T04:23:59;6.23;;;0.83;;
8337;SDS011;4206;48.634;9.516;2022-10-16T04:26:24;1.50;;;0.80;;
8337;SDS011;4206;48.634;9.516;2022-10-16T04:28:50;1.50;;;1.27;;
8337;SDS011;4206;48.634;9.516;2022-10-16T04:31:15;1.53;;;0.80;;
8337;SDS011;4206;48.634;9.516;2022-10-16T04:33:42;2.07;;;0.77;;
8337;SDS011;4206;48.634;9.516;2022-10-16T04:36:08;3.23;;;0.90;;
8337;SDS011;4206;48.634;9.516;2022-10-16T04:38:34;1.83;;;0.73;;
8337;SDS011;4206;48.634;9.516;2022-10-16T04:41:00;2.20;;;0.93;;
8337;SDS011;4206;48.634;9.516;2022-10-16T04:43:25;1.17;;;0.53;;
8337;SDS011;4206;48.634;9.516;2022-10-16T04:45:51;1.50;;;0.70;;
8337;SDS011;4206;48.634;9.516;2022-10-16T04:48:17;1.03;;;0.77;;
8337;SDS011;4206;48.634;9.516;2022-10-16T04:50:43;1.87;;;0.70;;
8337;SDS011;4206;48.634;9.516;2022-10-16T04:53:09;2.63;;;0.80;;
8337;SDS011;4206;48.634;9.516;2022-10-16T04:55:34;5.50;;;0.70;;
8337;SDS011;4206;48.634;9.516;2022-10-16T04:58:01;5.50;;;1.03;;
8337;SDS011;4206;48.634;9.516;2022-10-16T05:00:26;2.77;;;1.10;;
8337;SDS011;4206;48.634;9.516;2022-10-16T05:02:52;1.53;;;1.07;;
8337;SDS011;4206;48.634;9.516;2022-10-16T05:05:18;7.97;;;1.27;;
8337;SDS011;4206;48.634;9.516;2022-10-16T05:07:45;2.53;;;0.90;;
8337;SDS011;4206;48.634;9.516;2022-10-16T05:10:11;3.37;;;0.90;;
8337;SDS011;4206;48.634;9.516;2022-10-16T05:12:37;2.30;;;0.83;;
8337;SDS011;4206;48.634;9.516;2022-10-16T05:15:03;2.37;;;0.90;;
8337;SDS011;4206;48.634;9.516;2022-10-16T05:17:29;3.70;;;1.10;;
8337;SDS011;4206;48.634;9.516;2022-10-16T05:19:55;3.37;;;1.07;;
8337;SDS011;4206;48.634;9.516;2022-10-16T05:22:21;1.63;;;0.70;;
8337;SDS011;4206;48.634;9.516;2022-10-16T05:24:46;0.73;;;0.73;;
8337;SDS011;4206;48.634;9.516;2022-10-16T05:27:12;3.17;;;0.97;;
8337;SDS011;4206;48.634;9.516;2022-10-16T05:29:44;1.60;;;1.00;;
8337;SDS011;4206;48.634;9.516;2022-10-16T05:32:11;6.23;;;0.70;;
8337;SDS011;4206;48.634;9.516;2022-10-16T05:34:37;4.90;;;0.67;;
8337;SDS011;4206;48.634;9.516;2022-10-16T05:37:03;4.27;;;1.27;;
8337;SDS011;4206;48.634;9.516;2022-10-16T05:39:28;0.90;;;0.67;;
8337;SDS011;4206;48.634;9.516;2022-10-16T05:41:54;0.83;;;0.50;;
8337;SDS011;4206;48.634;9.516;2022-10-16T05:44:19;4.87;;;0.97;;
8337;SDS011;4206;48.634;9.516;2022-10-16T05:46:46;1.10;;;0.93;;
8337;SDS011;4206;48.634;9.516;2022-10-16T05:49:12;3.20;;;1.00;;
8337;SDS011;4206;48.634;9.516;2022-10-16T05:51:37;2.70;;;0.90;;
8337;SDS011;4206;48.634;9.516;2022-10-16T05:54:03;5.10;;;1.07;;
8337;SDS011;4206;48.634;9.516;2022-10-16T05:56:29;4.73;;;0.93;;
8337;SDS011;4206;48.634;9.516;2022-10-16T05:58:54;5.60;;;1.10;;
8337;SDS011;4206;48.634;9.516;2022-10-16T06:01:20;3.90;;;0.97;;
8337;SDS011;4206;48.634;9.516;2022-10-16T06:03:49;0.93;;;0.60;;
8337;SDS011;4206;48.634;9.516;2022-10-16T06:06:16;7.20;;;1.47;;
8337;SDS011;4206;48.634;9.516;2022-10-16T06:08:45;2.33;;;0.90;;
8337;SDS011;4206;48.634;9.516;2022-10-16T06:11:12;0.70;;;0.70;;
8337;SDS011;4206;48.634;9.516;2022-10-16T06:13:40;1.93;;;0.90;;
8337;SDS011;4206;48.634;9.516;2022-10-16T06:16:07;2.70;;;1.13;;
8337;SDS011;4206;48.634;9.516;2022-10-16T06:18:34;2.70;;;1.67;;
8337;SDS011;4206;48.634;9.516;2022-10-16T06:21:06;4.37;;;3.40;;
8337;SDS011;4206;48.634;9.516;2022-10-16T06:23:33;7.67;;;5.27;;
8337;SDS011;4206;48.634;9.516;2022-10-16T06:26:06;5.80;;;4.10;;
8337;SDS011;4206;48.634;9.516;2022-10-16T06:28:33;4.00;;;2.60;;
8337;SDS011;4206;48.634;9.516;2022-10-16T06:30:59;5.40;;;2.77;;
8337;SDS011;4206;48.634;9.516;2022-10-16T06:33:25;9.00;;;3.50;;
8337;SDS011;4206;48.634;9.516;2022-10-16T06:35:51;4.63;;;2.43;;
8337;SDS011;4206;48.634;9.516;2022-10-16T06:38:17;10.80;;;4.13;;
8337;SDS011;4206;48.634;9.516;2022-10-16T06:40:42;18.33;;;7.97;;
8337;SDS011;4206;48.634;9.516;2022-10-16T06:43:08;39.33;;;17.70;;
8337;SDS011;4206;48.634;9.516;2022-10-16T06:45:34;37.77;;;19.40;;
8337;SDS011;4206;48.634;9.516;2022-10-16T06:47:59;38.47;;;16.97;;
8337;SDS011;4206;48.634;9.516;2022-10-16T06:50:25;33.57;;;16.33;;
8337;SDS011;4206;48.634;9.516;2022-10-16T06:52:51;27.03;;;13.10;;
8337;SDS011;4206;48.634;9.516;2022-10-16T06:55:16;30.93;;;14.30;;
8337;SDS011;4206;48.634;9.516;2022-10-16T06:57:42;29.70;;;13.80;;
8337;SDS011;4206;48.634;9.516;2022-10-16T07:00:08;18.40;;;9.67;;
8337;SDS011;4206;48.634;9.516;2022-10-16T07:02:34;14.37;;;7.30;;
8337;SDS011;4206;48.634;9.516;2022-10-16T07:05:00;9.80;;;4.87;;
8337;SDS011;4206;48.634;9.516;2022-10-16T07:07:26;6.30;;;2.20;;
8337;SDS011;4206;48.634;9.516;2022-10-16T07:09:51;2.50;;;1.43;;
8337;SDS011;4206;48.634;9.516;2022-10-16T07:12:17;4.37;;;1.20;;
8337;SDS011;4206;48.634;9.516;2022-10-16T07:14:43;2.60;;;1.70;;
8337;SDS011;4206;48.634;9.516;2022-10-16T07:17:09;3.83;;;1.50;;
8337;SDS011;4206;48.634;9.516;2022-10-16T07:19:34;4.17;;;1.43;;
8337;SDS011;4206;48.634;9.516;2022-10-16T07:22:00;6.67;;;1.27;;
8337;SDS011;4206;48.634;9.516;2022-10-16T07:24:26;3.93;;;1.50;;
8337;SDS011;4206;48.634;9.516;2022-10-16T07:26:51;4.07;;;1.90;;
8337;SDS011;4206;48.634;9.516;2022-10-16T07:29:18;4.60;;;2.70;;
8337;SDS011;4206;48.634;9.516;2022-10-16T07:31:45;3.10;;;1.77;;
8337;SDS011;4206;48.634;9.516;2022-10-16T07:34:12;3.50;;;1.73;;
8337;SDS011;4206;48.634;9.516;2022-10-16T07:36:39;3.90;;;1.43;;
8337;SDS011;4206;48.634;9.516;2022-10-16T07:39:05;2.80;;;1.10;;
8337;SDS011;4206;48.634;9.516;2022-10-16T07:41:30;5.33;;;1.20;;
8337;SDS011;4206;48.634;9.516;2022-10-16T07:43:58;3.23;;;1.07;;
8337;SDS011;4206;48.634;9.516;2022-10-16T07:46:25;3.17;;;1.30;;
8337;SDS011;4206;48.634;9.516;2022-10-16T07:48:51;2.40;;;1.07;;
8337;SDS011;4206;48.634;9.516;2022-10-16T07:51:18;6.00;;;1.80;;
8337;SDS011;4206;48.634;9.516;2022-10-16T07:53:49;2.60;;;2.40;;
8337;SDS011;4206;48.634;9.516;2022-10-16T07:56:16;6.73;;;1.23;;
8337;SDS011;4206;48.634;9.516;2022-10-16T07:58:43;1.83;;;1.10;;
8337;SDS011;4206;48.634;9.516;2022-10-16T08:01:10;2.70;;;1.10;;
8337;SDS011;4206;48.634;9.516;2022-10-16T08:03:38;1.23;;;0.87;;
8337;SDS011;4206;48.634;9.516;2022-10-16T08:06:06;2.17;;;1.10;;
8337;SDS011;4206;48.634;9.516;2022-10-16T08:08:31;3.20;;;0.87;;
8337;SDS011;4206;48.634;9.516;2022-10-16T08:10:57;1.90;;;1.17;;
8337;SDS011;4206;48.634;9.516;2022-10-16T08:13:22;2.77;;;0.97;;
8337;SDS011;4206;48.634;9.516;2022-10-16T08:15:48;1.33;;;0.90;;
8337;SDS011;4206;48.634;9.516;2022-10-16T08:18:14;7.50;;;0.97;;
8337;SDS011;4206;48.634;9.516;2022-10-16T08:20:40;2.43;;;1.00;;
8337;SDS011;4206;48.634;9.516;2022-10-16T08:23:11;2.43;;;1.00;;
8337;SDS011;4206;48.634;9.516;2022-10-16T08:25:38;4.20;;;1.20;;
8337;SDS011;4206;48.634;9.516;2022-10-16T08:28:06;8.53;;;1.17;;
8337;SDS011;4206;48.634;9.516;2022-10-16T08:30:33;1.53;;;1.40;;
8337;SDS011;4206;48.634;9.516;2022-10-16T08:32:59;2.23;;;1.70;;
8337;SDS011;4206;48.634;9.516;2022-10-16T08:35:25;3.80;;;1.57;;
8337;SDS011;4206;48.634;9.516;2022-10-16T08:37:51;5.60;;;1.70;;
8337;SDS011;4206;48.634;9.516;2022-10-16T08:42:55;4.73;;;1.20;;
8337;SDS011;4206;48.634;9.516;2022-10-16T08:45:25;2.00;;;0.97;;
8337;SDS011;4206;48.634;9.516;2022-10-16T08:50:35;4.07;;;1.30;;
8337;SDS011;4206;48.634;9.516;2022-10-16T08:53:03;1.67;;;1.00;;
8337;SDS011;4206;48.634;9.516;2022-10-16T08:55:33;4.80;;;1.03;;
8337;SDS011;4206;48.634;9.516;2022-10-16T08:58:10;1.80;;;0.77;;
8337;SDS011;4206;48.634;9.516;2022-10-16T09:00:38;2.27;;;1.00;;
8337;SDS011;4206;48.634;9.516;2022-10-16T09:03:10;3.03;;;1.00;;
8337;SDS011;4206;48.634;9.516;2022-10-16T09:05:46;4.93;;;1.37;;
8337;SDS011;4206;48.634;9.516;2022-10-16T09:13:37;1.67;;;1.20;;
8337;SDS011;4206;48.634;9.516;2022-10-16T09:16:13;1.60;;;1.40;;
8337;SDS011;4206;48.634;9.516;2022-10-16T09:18:45;7.00;;;1.20;;
8337;SDS011;4206;48.634;9.516;2022-10-16T09:21:21;4.90;;;1.20;;
8337;SDS011;4206;48.634;9.516;2022-10-16T09:23:50;2.83;;;1.23;;
8337;SDS011;4206;48.634;9.516;2022-10-16T09:26:16;3.60;;;1.00;;
8337;SDS011;4206;48.634;9.516;2022-10-16T09:28:44;1.73;;;1.00;;
8337;SDS011;4206;48.634;9.516;2022-10-16T09:31:13;3.77;;;1.20;;
8337;SDS011;4206;48.634;9.516;2022-10-16T09:33:42;3.07;;;1.20;;
8337;SDS011;4206;48.634;9.516;2022-10-16T09:36:10;1.50;;;0.80;;
8337;SDS011;4206;48.634;9.516;2022-10-16T09:38:38;4.13;;;1.23;;
8337;SDS011;4206;48.634;9.516;2022-10-16T09:43:47;1.07;;;0.87;;
8337;SDS011;4206;48.634;9.516;2022-10-16T09:48:50;3.07;;;2.07;;
8337;SDS011;4206;48.634;9.516;2022-10-16T09:51:21;5.40;;;1.27;;
8337;SDS011;4206;48.634;9.516;2022-10-16T09:53:53;4.60;;;1.30;;
8337;SDS011;4206;48.634;9.516;2022-10-16T09:56:23;3.47;;;1.00;;
8337;SDS011;4206;48.634;9.516;2022-10-16T09:58:53;1.63;;;1.10;;
8337;SDS011;4206;48.634;9.516;2022-10-16T10:01:23;3.87;;;1.23;;
8337;SDS011;4206;48.634;9.516;2022-10-16T10:03:55;2.73;;;0.80;;
8337;SDS011;4206;48.634;9.516;2022-10-16T10:06:27;0.80;;;0.77;;
8337;SDS011;4206;48.634;9.516;2022-10-16T10:08:57;1.23;;;1.10;;
8337;SDS011;4206;48.634;9.516;2022-10-16T10:11:37;3.43;;;1.10;;
8337;SDS011;4206;48.634;9.516;2022-10-16T10:14:06;4.23;;;0.97;;
8337;SDS011;4206;48.634;9.516;2022-10-16T10:16:40;5.43;;;1.30;;
8337;SDS011;4206;48.634;9.516;2022-10-16T10:19:09;5.27;;;1.10;;
8337;SDS011;4206;48.634;9.516;2022-10-16T10:21:47;2.00;;;1.27;;
8337;SDS011;4206;48.634;9.516;2022-10-16T10:24:15;2.03;;;1.17;;
8337;SDS011;4206;48.634;9.516;2022-10-16T10:26:44;3.00;;;1.10;;
8337;SDS011;4206;48.634;9.516;2022-10-16T10:31:52;1.60;;;1.00;;
8337;SDS011;4206;48.634;9.516;2022-10-16T10:40:17;10.30;;;9.23;;
8337;SDS011;4206;48.634;9.516;2022-10-16T10:45:27;5.60;;;1.97;;
8337;SDS011;4206;48.634;9.516;2022-10-16T10:50:54;1.73;;;0.63;;
8337;SDS011;4206;48.634;9.516;2022-10-16T11:01:31;1.17;;;0.63;;
8337;SDS011;4206;48.634;9.516;2022-10-16T11:07:04;1.43;;;1.03;;
8337;SDS011;4206;48.634;9.516;2022-10-16T11:09:51;1.60;;;0.73;;
8337;SDS011;4206;48.634;9.516;2022-10-16T11:12:24;1.10;;;0.70;;
8337;SDS011;4206;48.634;9.516;2022-10-16T11:14:57;10.70;;;8.63;;
8337;SDS011;4206;48.634;9.516;2022-10-16T11:20:29;2.40;;;0.90;;
8337;SDS011;4206;48.634;9.516;2022-10-16T11:25:47;4.53;;;1.10;;
8337;SDS011;4206;48.634;9.516;2022-10-16T11:28:15;2.42;;;0.98;;
8337;SDS011;4206;48.634;9.516;2022-10-16T11:30:47;2.77;;;1.03;;
8337;SDS011;4206;48.634;9.516;2022-10-16T11:38:15;4.73;;;0.80;;
8337;SDS011;4206;48.634;9.516;2022-10-16T11:40:43;2.70;;;0.90;;
8337;SDS011;4206;48.634;9.516;2022-10-16T11:43:15;6.10;;;0.73;;
8337;SDS011;4206;48.634;9.516;2022-10-16T11:45:49;3.63;;;0.97;;
8337;SDS011;4206;48.634;9.516;2022-10-16T11:56:48;4.80;;;0.70;;
8337;SDS011;4206;48.634;9.516;2022-10-16T12:01:48;1.50;;;0.63;;
8337;SDS011;4206;48.634;9.516;2022-10-16T12:04:25;4.30;;;0.50;;
8337;SDS011;4206;48.634;9.516;2022-10-16T12:07:11;1.30;;;0.98;;
8337;SDS011;4206;48.634;9.516;2022-10-16T12:09:44;4.22;;;1.08;;
8337;SDS011;4206;48.634;9.516;2022-10-16T12:15:01;1.08;;;0.70;;
8337;SDS011;4206;48.634;9.516;2022-10-16T12:17:42;1.65;;;0.70;;
8337;SDS011;4206;48.634;9.516;2022-10-16T12:22:41;3.90;;;0.82;;
8337;SDS011;4206;48.634;9.516;2022-10-16T12:30:26;1.98;;;0.77;;
8337;SDS011;4206;48.634;9.516;2022-10-16T12:32:54;6.68;;;1.00;;
8337;SDS011;4206;48.634;9.516;2022-10-16T12:35:24;3.92;;;1.40;;
8337;SDS011;4206;48.634;9.516;2022-10-16T12:37:52;2.88;;;1.20;;
8337;SDS011;4206;48.634;9.516;2022-10-16T12:42:55;0.90;;;0.90;;
8337;SDS011;4206;48.634;9.516;2022-10-16T12:45:23;1.65;;;1.30;;
8337;SDS011;4206;48.634;9.516;2022-10-16T12:47:51;3.35;;;1.55;;
8337;SDS011;4206;48.634;9.516;2022-10-16T12:52:56;2.78;;;1.00;;
8337;SDS011;4206;48.634;9.516;2022-10-16T12:55:22;1.95;;;1.15;;
8337;SDS011;4206;48.634;9.516;2022-10-16T13:00:21;4.18;;;1.30;;
8337;SDS011;4206;48.634;9.516;2022-10-16T13:17:04;2.05;;;1.10;;
8337;SDS011;4206;48.634;9.516;2022-10-16T13:28:07;2.25;;;0.90;;
8337;SDS011;4206;48.634;9.516;2022-10-16T13:30:40;3.42;;;0.80;;
8337;SDS011;4206;48.634;9.516;2022-10-16T13:33:14;14.77;;;1.52;;
8337;SDS011;4206;48.634;9.516;2022-10-16T13:35:52;2.17;;;1.40;;
8337;SDS011;4206;48.634;9.516;2022-10-16T13:38:21;1.27;;;0.98;;
8337;SDS011;4206;48.634;9.516;2022-10-16T13:40:53;7.05;;;1.27;;
8337;SDS011;4206;48.634;9.516;2022-10-16T13:43:23;1.77;;;1.10;;
8337;SDS011;4206;48.634;9.516;2022-10-16T13:45:52;2.35;;;1.15;;
8337;SDS011;4206;48.634;9.516;2022-10-16T13:48:20;3.28;;;0.90;;
8337;SDS011;4206;48.634;9.516;2022-10-16T13:50:46;1.17;;;0.93;;
8337;SDS011;4206;48.634;9.516;2022-10-16T13:53:23;2.10;;;0.93;;
8337;SDS011;4206;48.634;9.516;2022-10-16T13:55:49;3.70;;;1.02;;
8337;SDS011;4206;48.634;9.516;2022-10-16T13:58:15;1.77;;;1.00;;
8337;SDS011;4206;48.634;9.516;2022-10-16T14:00:42;2.35;;;1.00;;
8337;SDS011;4206;48.634;9.516;2022-10-16T14:03:19;3.42;;;1.20;;
8337;SDS011;4206;48.634;9.516;2022-10-16T14:05:47;3.55;;;0.95;;
8337;SDS011;4206;48.634;9.516;2022-10-16T14:08:15;3.88;;;1.08;;
8337;SDS011;4206;48.634;9.516;2022-10-16T14:10:41;2.78;;;1.67;;
8337;SDS011;4206;48.634;9.516;2022-10-16T14:13:07;4.88;;;0.95;;
8337;SDS011;4206;48.634;9.516;2022-10-16T14:15:38;4.68;;;0.98;;
8337;SDS011;4206;48.634;9.516;2022-10-16T14:18:04;1.73;;;1.30;;
8337;SDS011;4206;48.634;9.516;2022-10-16T14:20:31;1.67;;;1.00;;
8337;SDS011;4206;48.634;9.516;2022-10-16T14:23:01;3.22;;;1.20;;
8337;SDS011;4206;48.634;9.516;2022-10-16T14:25:29;3.22;;;0.70;;
8337;SDS011;4206;48.634;9.516;2022-10-16T14:28:05;1.33;;;1.20;;
8337;SDS011;4206;48.634;9.516;2022-10-16T14:36:03;1.00;;;0.80;;
8337;SDS011;4206;48.634;9.516;2022-10-16T14:38:30;5.63;;;1.02;;
8337;SDS011;4206;48.634;9.516;2022-10-16T14:40:58;1.85;;;0.70;;
8337;SDS011;4206;48.634;9.516;2022-10-16T14:46:09;3.17;;;1.00;;
8337;SDS011;4206;48.634;9.516;2022-10-16T14:48:46;2.50;;;0.90;;
8337;SDS011;4206;48.634;9.516;2022-10-16T14:51:15;1.20;;;0.80;;
8337;SDS011;4206;48.634;9.516;2022-10-16T14:53:43;2.87;;;1.10;;
8337;SDS011;4206;48.634;9.516;2022-10-16T14:56:15;1.30;;;0.80;;
8337;SDS011;4206;48.634;9.516;2022-10-16T14:58:44;2.33;;;1.00;;
8337;SDS011;4206;48.634;9.516;2022-10-16T15:01:10;3.17;;;1.20;;
8337;SDS011;4206;48.634;9.516;2022-10-16T15:03:36;1.40;;;1.00;;
8337;SDS011;4206;48.634;9.516;2022-10-16T15:06:03;3.07;;;1.00;;
8337;SDS011;4206;48.634;9.516;2022-10-16T15:08:28;1.83;;;0.90;;
8337;SDS011;4206;48.634;9.516;2022-10-16T15:10:54;3.13;;;1.20;;
8337;SDS011;4206;48.634;9.516;2022-10-16T15:13:20;2.43;;;1.37;;
8337;SDS011;4206;48.634;9.516;2022-10-16T15:15:46;6.37;;;0.80;;
8337;SDS011;4206;48.634;9.516;2022-10-16T15:18:14;5.83;;;0.90;;
8337;SDS011;4206;48.634;9.516;2022-10-16T15:20:45;2.17;;;0.87;;
8337;SDS011;4206;48.634;9.516;2022-10-16T15:23:13;4.00;;;1.03;;
8337;SDS011;4206;48.634;9.516;2022-10-16T15:28:08;4.73;;;1.10;;
8337;SDS011;4206;48.634;9.516;2022-10-16T15:30:35;1.00;;;0.80;;
8337;SDS011;4206;48.634;9.516;2022-10-16T15:33:02;3.60;;;1.17;;
8337;SDS011;4206;48.634;9.516;2022-10-16T15:35:28;1.90;;;0.93;;
8337;SDS011;4206;48.634;9.516;2022-10-16T15:37:54;1.73;;;1.33;;
8337;SDS011;4206;48.634;9.516;2022-10-16T15:40:20;7.30;;;1.37;;
8337;SDS011;4206;48.634;9.516;2022-10-16T15:42:47;3.30;;;1.03;;
8337;SDS011;4206;48.634;9.516;2022-10-16T15:45:13;2.60;;;1.50;;
8337;SDS011;4206;48.634;9.516;2022-10-16T15:47:41;3.53;;;1.30;;
8337;SDS011;4206;48.634;9.516;2022-10-16T15:50:08;1.60;;;1.17;;
8337;SDS011;4206;48.634;9.516;2022-10-16T15:52:35;2.70;;;1.13;;
8337;SDS011;4206;48.634;9.516;2022-10-16T15:55:01;3.20;;;1.50;;
8337;SDS011;4206;48.634;9.516;2022-10-16T15:57:28;8.67;;;1.40;;
8337;SDS011;4206;48.634;9.516;2022-10-16T15:59:54;6.40;;;1.77;;
8337;SDS011;4206;48.634;9.516;2022-10-16T16:02:20;3.33;;;2.07;;
8337;SDS011;4206;48.634;9.516;2022-10-16T16:04:45;3.37;;;1.90;;
8337;SDS011;4206;48.634;9.516;2022-10-16T16:07:11;2.20;;;1.60;;
8337;SDS011;4206;48.634;9.516;2022-10-16T16:09:37;7.73;;;1.80;;
8337;SDS011;4206;48.634;9.516;2022-10-16T16:12:02;3.80;;;1.63;;
8337;SDS011;4206;48.634;9.516;2022-10-16T16:14:28;8.93;;;1.70;;
8337;SDS011;4206;48.634;9.516;2022-10-16T16:16:54;3.13;;;1.60;;
8337;SDS011;4206;48.634;9.516;2022-10-16T16:19:20;2.53;;;1.73;;
8337;SDS011;4206;48.634;9.516;2022-10-16T16:21:46;3.43;;;1.70;;
8337;SDS011;4206;48.634;9.516;2022-10-16T16:24:12;3.10;;;2.13;;
8337;SDS011;4206;48.634;9.516;2022-10-16T16:26:38;7.13;;;4.00;;
8337;SDS011;4206;48.634;9.516;2022-10-16T16:29:04;7.63;;;2.50;;
8337;SDS011;4206;48.634;9.516;2022-10-16T16:31:30;3.40;;;1.70;;
8337;SDS011;4206;48.634;9.516;2022-10-16T16:33:57;2.27;;;1.33;;
8337;SDS011;4206;48.634;9.516;2022-10-16T16:36:23;6.20;;;1.70;;
8337;SDS011;4206;48.634;9.516;2022-10-16T16:38:50;5.37;;;1.40;;
8337;SDS011;4206;48.634;9.516;2022-10-16T16:41:17;8.07;;;1.50;;
8337;SDS011;4206;48.634;9.516;2022-10-16T16:43:45;2.90;;;1.47;;
8337;SDS011;4206;48.634;9.516;2022-10-16T16:46:12;1.23;;;1.13;;
8337;SDS011;4206;48.634;9.516;2022-10-16T16:48:38;2.90;;;1.30;;
8337;SDS011;4206;48.634;9.516;2022-10-16T16:51:05;1.43;;;1.33;;
8337;SDS011;4206;48.634;9.516;2022-10-16T16:53:33;2.73;;;1.50;;
8337;SDS011;4206;48.634;9.516;2022-10-16T16:56:03;4.93;;;1.20;;
8337;SDS011;4206;48.634;9.516;2022-10-16T16:58:30;4.63;;;1.50;;
8337;SDS011;4206;48.634;9.516;2022-10-16T17:00:57;1.83;;;1.03;;
8337;SDS011;4206;48.634;9.516;2022-10-16T17:03:26;3.43;;;1.40;;
8337;SDS011;4206;48.634;9.516;2022-10-16T17:06:01;2.43;;;1.10;;
8337;SDS011;4206;48.634;9.516;2022-10-16T17:08:29;5.43;;;1.67;;
8337;SDS011;4206;48.634;9.516;2022-10-16T17:10:55;8.90;;;1.50;;
8337;SDS011;4206;48.634;9.516;2022-10-16T17:13:25;3.30;;;1.87;;
8337;SDS011;4206;48.634;9.516;2022-10-16T17:15:53;5.13;;;1.67;;
8337;SDS011;4206;48.634;9.516;2022-10-16T17:18:20;5.50;;;1.90;;
8337;SDS011;4206;48.634;9.516;2022-10-16T17:20:47;2.30;;;1.40;;
8337;SDS011;4206;48.634;9.516;2022-10-16T17:23:13;2.80;;;1.00;;
8337;SDS011;4206;48.634;9.516;2022-10-16T17:25:40;6.23;;;1.33;;
8337;SDS011;4206;48.634;9.516;2022-10-16T17:28:06;3.70;;;1.50;;
8337;SDS011;4206;48.634;9.516;2022-10-16T17:30:33;10.93;;;1.60;;
8337;SDS011;4206;48.634;9.516;2022-10-16T17:33:00;3.37;;;1.50;;
8337;SDS011;4206;48.634;9.516;2022-10-16T17:35:26;3.00;;;1.50;;
8337;SDS011;4206;48.634;9.516;2022-10-16T17:37:52;7.20;;;1.83;;